sensor_id;sensor_type;location;lat;lon;timestamp;temperature;humidity
66928;DHT22;59882;45.624;11.698;2023-12-20T00:02:17;3.40;76.00
66928;DHT22;59882;45.624;11.698;2023-12-20T00:04:43;3.40;75.90
66928;DHT22;59882;45.624;11.698;2023-12-20T00:07:08;3.40;75.80
66928;DHT22;59882;45.624;11.698;2023-12-20T00:09:34;3.30;76.00
66928;DHT22;59882;45.624;11.698;2023-12-20T00:11:59;3.30;76.00
66928;DHT22;59882;45.624;11.698;2023-12-20T00:14:25;3.30;75.90
66928;DHT22;59882;45.624;11.698;2023-12-20T00:16:51;3.20;75.90
66928;DHT22;59882;45.624;11.698;2023-12-20T00:19:16;3.20;76.10
66928;DHT22;59882;45.624;11.698;2023-12-20T00:21:42;3.10;76.20
66928;DHT22;59882;45.624;11.698;2023-12-20T00:24:08;3.00;76.50
66928;DHT22;59882;45.624;11.698;2023-12-20T00:26:33;3.00;76.60
66928;DHT22;59882;45.624;11.698;2023-12-20T00:28:59;2.90;76.80
66928;DHT22;59882;45.624;11.698;2023-12-20T00:31:25;2.80;76.80
66928;DHT22;59882;45.624;11.698;2023-12-20T00:33:51;2.80;77.10
66928;DHT22;59882;45.624;11.698;2023-12-20T00:36:16;2.70;77.20
66928;DHT22;59882;45.624;11.698;2023-12-20T00:38:42;2.70;77.20
66928;DHT22;59882;45.624;11.698;2023-12-20T00:41:07;2.70;77.40
66928;DHT22;59882;45.624;11.698;2023-12-20T00:43:33;2.70;77.60
66928;DHT22;59882;45.624;11.698;2023-12-20T00:45:59;2.70;77.60
66928;DHT22;59882;45.624;11.698;2023-12-20T00:48:25;2.70;77.50
66928;DHT22;59882;45.624;11.698;2023-12-20T00:50:52;2.70;77.80
66928;DHT22;59882;45.624;11.698;2023-12-20T00:53:18;2.70;77.70
66928;DHT22;59882;45.624;11.698;2023-12-20T00:55:44;2.80;77.20
66928;DHT22;59882;45.624;11.698;2023-12-20T00:58:10;2.80;77.30
66928;DHT22;59882;45.624;11.698;2023-12-20T01:00:36;2.80;77.10
66928;DHT22;59882;45.624;11.698;2023-12-20T01:03:01;2.80;77.30
66928;DHT22;59882;45.624;11.698;2023-12-20T01:05:27;2.80;77.40
66928;DHT22;59882;45.624;11.698;2023-12-20T01:07:53;2.80;77.30
66928;DHT22;59882;45.624;11.698;2023-12-20T01:10:18;2.80;77.20
66928;DHT22;59882;45.624;11.698;2023-12-20T01:12:44;2.80;77.30
66928;DHT22;59882;45.624;11.698;2023-12-20T01:15:10;2.70;77.50
66928;DHT22;59882;45.624;11.698;2023-12-20T01:17:35;2.70;77.50
66928;DHT22;59882;45.624;11.698;2023-12-20T01:20:01;2.60;77.50
66928;DHT22;59882;45.624;11.698;2023-12-20T01:22:27;2.60;77.40
66928;DHT22;59882;45.624;11.698;2023-12-20T01:24:52;2.60;77.30
66928;DHT22;59882;45.624;11.698;2023-12-20T01:27:18;2.60;77.40
66928;DHT22;59882;45.624;11.698;2023-12-20T01:29:44;2.60;77.80
66928;DHT22;59882;45.624;11.698;2023-12-20T01:32:09;2.60;77.90
66928;DHT22;59882;45.624;11.698;2023-12-20T01:34:35;2.60;77.90
66928;DHT22;59882;45.624;11.698;2023-12-20T01:37:01;2.60;77.80
66928;DHT22;59882;45.624;11.698;2023-12-20T01:39:27;2.60;77.80
66928;DHT22;59882;45.624;11.698;2023-12-20T01:41:53;2.60;77.70
66928;DHT22;59882;45.624;11.698;2023-12-20T01:44:19;2.60;77.80
66928;DHT22;59882;45.624;11.698;2023-12-20T01:46:45;2.60;77.70
66928;DHT22;59882;45.624;11.698;2023-12-20T01:49:11;2.60;77.90
66928;DHT22;59882;45.624;11.698;2023-12-20T01:51:37;2.60;77.70
66928;DHT22;59882;45.624;11.698;2023-12-20T01:54:03;2.60;77.90
66928;DHT22;59882;45.624;11.698;2023-12-20T01:56:30;2.60;77.90
66928;DHT22;59882;45.624;11.698;2023-12-20T01:58:57;2.60;77.70
66928;DHT22;59882;45.624;11.698;2023-12-20T02:01:23;2.50;77.60
66928;DHT22;59882;45.624;11.698;2023-12-20T02:03:50;2.50;77.60
66928;DHT22;59882;45.624;11.698;2023-12-20T02:06:16;2.50;77.70
66928;DHT22;59882;45.624;11.698;2023-12-20T02:08:43;2.50;77.60
66928;DHT22;59882;45.624;11.698;2023-12-20T02:11:10;2.50;77.60
66928;DHT22;59882;45.624;11.698;2023-12-20T02:13:56;2.40;77.60
66928;DHT22;59882;45.624;11.698;2023-12-20T02:16:22;2.40;77.80
66928;DHT22;59882;45.624;11.698;2023-12-20T02:18:47;2.50;77.90
66928;DHT22;59882;45.624;11.698;2023-12-20T02:21:13;2.40;78.00
66928;DHT22;59882;45.624;11.698;2023-12-20T02:23:40;2.50;78.00
66928;DHT22;59882;45.624;11.698;2023-12-20T02:26:05;2.50;78.10
66928;DHT22;59882;45.624;11.698;2023-12-20T02:28:32;2.50;78.20
66928;DHT22;59882;45.624;11.698;2023-12-20T02:30:57;2.50;78.00
66928;DHT22;59882;45.624;11.698;2023-12-20T02:33:23;2.50;77.80
66928;DHT22;59882;45.624;11.698;2023-12-20T02:35:48;2.40;77.80
66928;DHT22;59882;45.624;11.698;2023-12-20T02:38:14;2.40;77.70
66928;DHT22;59882;45.624;11.698;2023-12-20T02:40:40;2.40;77.90
66928;DHT22;59882;45.624;11.698;2023-12-20T02:43:05;2.40;78.10
66928;DHT22;59882;45.624;11.698;2023-12-20T02:45:31;2.40;77.90
66928;DHT22;59882;45.624;11.698;2023-12-20T02:47:57;2.40;77.80
66928;DHT22;59882;45.624;11.698;2023-12-20T02:50:22;2.40;77.60
66928;DHT22;59882;45.624;11.698;2023-12-20T02:52:48;2.40;77.80
66928;DHT22;59882;45.624;11.698;2023-12-20T02:55:13;2.40;77.80
66928;DHT22;59882;45.624;11.698;2023-12-20T02:57:39;2.40;77.90
66928;DHT22;59882;45.624;11.698;2023-12-20T03:00:08;2.40;77.90
66928;DHT22;59882;45.624;11.698;2023-12-20T03:02:34;2.40;77.60
66928;DHT22;59882;45.624;11.698;2023-12-20T03:05:00;2.30;77.90
66928;DHT22;59882;45.624;11.698;2023-12-20T03:07:26;2.40;77.80
66928;DHT22;59882;45.624;11.698;2023-12-20T03:09:52;2.30;77.70
66928;DHT22;59882;45.624;11.698;2023-12-20T03:12:17;2.30;77.80
66928;DHT22;59882;45.624;11.698;2023-12-20T03:14:44;2.30;78.00
66928;DHT22;59882;45.624;11.698;2023-12-20T03:17:10;2.20;77.80
66928;DHT22;59882;45.624;11.698;2023-12-20T03:19:35;2.20;77.90
66928;DHT22;59882;45.624;11.698;2023-12-20T03:22:01;2.20;77.70
66928;DHT22;59882;45.624;11.698;2023-12-20T03:24:27;2.10;77.90
66928;DHT22;59882;45.624;11.698;2023-12-20T03:26:53;2.10;78.10
66928;DHT22;59882;45.624;11.698;2023-12-20T03:29:18;2.20;77.80
66928;DHT22;59882;45.624;11.698;2023-12-20T03:31:44;2.20;78.00
66928;DHT22;59882;45.624;11.698;2023-12-20T03:34:11;2.20;78.10
66928;DHT22;59882;45.624;11.698;2023-12-20T03:36:36;2.10;78.10
66928;DHT22;59882;45.624;11.698;2023-12-20T03:39:02;2.20;78.30
66928;DHT22;59882;45.624;11.698;2023-12-20T03:41:28;2.10;78.20
66928;DHT22;59882;45.624;11.698;2023-12-20T03:43:54;2.10;78.30
66928;DHT22;59882;45.624;11.698;2023-12-20T03:46:19;2.10;78.50
66928;DHT22;59882;45.624;11.698;2023-12-20T03:48:45;2.00;78.60
66928;DHT22;59882;45.624;11.698;2023-12-20T03:51:10;2.00;78.60
66928;DHT22;59882;45.624;11.698;2023-12-20T03:53:36;2.00;78.70
66928;DHT22;59882;45.624;11.698;2023-12-20T03:56:02;2.00;78.80
66928;DHT22;59882;45.624;11.698;2023-12-20T03:58:28;2.10;78.80
66928;DHT22;59882;45.624;11.698;2023-12-20T04:00:53;2.00;78.50
66928;DHT22;59882;45.624;11.698;2023-12-20T04:03:19;2.10;78.70
66928;DHT22;59882;45.624;11.698;2023-12-20T04:05:45;2.10;78.70
66928;DHT22;59882;45.624;11.698;2023-12-20T04:08:11;2.10;78.70
66928;DHT22;59882;45.624;11.698;2023-12-20T04:10:36;2.20;78.70
66928;DHT22;59882;45.624;11.698;2023-12-20T04:13:03;2.20;78.90
66928;DHT22;59882;45.624;11.698;2023-12-20T04:15:28;2.30;79.00
66928;DHT22;59882;45.624;11.698;2023-12-20T04:17:54;2.30;79.00
66928;DHT22;59882;45.624;11.698;2023-12-20T04:20:20;2.30;79.20
66928;DHT22;59882;45.624;11.698;2023-12-20T04:22:45;2.40;79.10
66928;DHT22;59882;45.624;11.698;2023-12-20T04:25:11;2.40;78.90
66928;DHT22;59882;45.624;11.698;2023-12-20T04:27:37;2.40;78.80
66928;DHT22;59882;45.624;11.698;2023-12-20T04:30:02;2.50;78.90
66928;DHT22;59882;45.624;11.698;2023-12-20T04:32:29;2.50;78.90
66928;DHT22;59882;45.624;11.698;2023-12-20T04:34:54;2.50;78.90
66928;DHT22;59882;45.624;11.698;2023-12-20T04:37:20;2.60;79.10
66928;DHT22;59882;45.624;11.698;2023-12-20T04:39:45;2.60;79.00
66928;DHT22;59882;45.624;11.698;2023-12-20T04:42:11;2.60;78.70
66928;DHT22;59882;45.624;11.698;2023-12-20T04:44:37;2.60;78.70
66928;DHT22;59882;45.624;11.698;2023-12-20T04:47:02;2.60;78.90
66928;DHT22;59882;45.624;11.698;2023-12-20T04:49:28;2.60;78.60
66928;DHT22;59882;45.624;11.698;2023-12-20T04:51:54;2.60;78.50
66928;DHT22;59882;45.624;11.698;2023-12-20T04:54:21;2.60;78.40
66928;DHT22;59882;45.624;11.698;2023-12-20T04:56:46;2.60;78.50
66928;DHT22;59882;45.624;11.698;2023-12-20T04:59:12;2.60;78.50
66928;DHT22;59882;45.624;11.698;2023-12-20T05:01:38;2.60;78.60
66928;DHT22;59882;45.624;11.698;2023-12-20T05:04:04;2.50;78.60
66928;DHT22;59882;45.624;11.698;2023-12-20T05:06:30;2.40;78.60
66928;DHT22;59882;45.624;11.698;2023-12-20T05:08:55;2.40;78.60
66928;DHT22;59882;45.624;11.698;2023-12-20T05:11:21;2.40;78.60
66928;DHT22;59882;45.624;11.698;2023-12-20T05:13:47;2.40;78.60
66928;DHT22;59882;45.624;11.698;2023-12-20T05:16:12;2.40;78.50
66928;DHT22;59882;45.624;11.698;2023-12-20T05:18:39;2.40;78.50
66928;DHT22;59882;45.624;11.698;2023-12-20T05:21:05;2.40;78.60
66928;DHT22;59882;45.624;11.698;2023-12-20T05:23:31;2.40;78.70
66928;DHT22;59882;45.624;11.698;2023-12-20T05:25:56;2.40;78.70
66928;DHT22;59882;45.624;11.698;2023-12-20T05:28:22;2.40;78.50
66928;DHT22;59882;45.624;11.698;2023-12-20T05:30:48;2.40;78.70
66928;DHT22;59882;45.624;11.698;2023-12-20T05:33:13;2.40;78.70
66928;DHT22;59882;45.624;11.698;2023-12-20T05:35:39;2.40;78.70
66928;DHT22;59882;45.624;11.698;2023-12-20T05:38:04;2.40;78.90
66928;DHT22;59882;45.624;11.698;2023-12-20T05:40:30;2.40;78.70
66928;DHT22;59882;45.624;11.698;2023-12-20T05:42:55;2.40;78.80
66928;DHT22;59882;45.624;11.698;2023-12-20T05:45:21;2.30;78.70
66928;DHT22;59882;45.624;11.698;2023-12-20T05:47:47;2.40;78.80
66928;DHT22;59882;45.624;11.698;2023-12-20T05:50:12;2.40;78.80
66928;DHT22;59882;45.624;11.698;2023-12-20T05:52:38;2.40;79.10
66928;DHT22;59882;45.624;11.698;2023-12-20T05:55:03;2.40;79.00
66928;DHT22;59882;45.624;11.698;2023-12-20T05:57:29;2.40;79.10
66928;DHT22;59882;45.624;11.698;2023-12-20T05:59:55;2.40;79.20
66928;DHT22;59882;45.624;11.698;2023-12-20T06:02:20;2.40;79.00
66928;DHT22;59882;45.624;11.698;2023-12-20T06:04:46;2.50;79.30
66928;DHT22;59882;45.624;11.698;2023-12-20T06:07:12;2.50;79.30
66928;DHT22;59882;45.624;11.698;2023-12-20T06:09:38;2.50;79.50
66928;DHT22;59882;45.624;11.698;2023-12-20T06:12:04;2.50;79.50
66928;DHT22;59882;45.624;11.698;2023-12-20T06:14:30;2.50;79.60
66928;DHT22;59882;45.624;11.698;2023-12-20T06:16:57;2.50;79.50
66928;DHT22;59882;45.624;11.698;2023-12-20T06:19:22;2.60;79.70
66928;DHT22;59882;45.624;11.698;2023-12-20T06:21:48;2.60;79.60
66928;DHT22;59882;45.624;11.698;2023-12-20T06:24:14;2.60;79.80
66928;DHT22;59882;45.624;11.698;2023-12-20T06:26:39;2.60;79.70
66928;DHT22;59882;45.624;11.698;2023-12-20T06:29:05;2.70;79.70
66928;DHT22;59882;45.624;11.698;2023-12-20T06:31:31;2.70;79.60
66928;DHT22;59882;45.624;11.698;2023-12-20T06:33:58;2.70;79.70
66928;DHT22;59882;45.624;11.698;2023-12-20T06:36:25;2.70;79.60
66928;DHT22;59882;45.624;11.698;2023-12-20T06:38:51;2.80;79.50
66928;DHT22;59882;45.624;11.698;2023-12-20T06:41:17;2.80;79.80
66928;DHT22;59882;45.624;11.698;2023-12-20T06:43:43;2.80;79.80
66928;DHT22;59882;45.624;11.698;2023-12-20T06:46:09;2.80;79.50
66928;DHT22;59882;45.624;11.698;2023-12-20T06:48:35;2.80;79.60
66928;DHT22;59882;45.624;11.698;2023-12-20T06:51:01;2.90;79.50
66928;DHT22;59882;45.624;11.698;2023-12-20T06:53:30;2.90;79.40
66928;DHT22;59882;45.624;11.698;2023-12-20T06:55:56;3.00;79.40
66928;DHT22;59882;45.624;11.698;2023-12-20T06:58:22;3.00;79.40
66928;DHT22;59882;45.624;11.698;2023-12-20T07:00:48;3.00;79.40
66928;DHT22;59882;45.624;11.698;2023-12-20T07:03:14;3.00;79.30
66928;DHT22;59882;45.624;11.698;2023-12-20T07:05:39;3.10;79.30
66928;DHT22;59882;45.624;11.698;2023-12-20T07:08:06;3.10;79.30
66928;DHT22;59882;45.624;11.698;2023-12-20T07:10:32;3.10;79.50
66928;DHT22;59882;45.624;11.698;2023-12-20T07:12:58;3.10;79.40
66928;DHT22;59882;45.624;11.698;2023-12-20T07:15:23;3.20;79.40
66928;DHT22;59882;45.624;11.698;2023-12-20T07:17:49;3.30;79.30
66928;DHT22;59882;45.624;11.698;2023-12-20T07:20:15;3.30;79.20
66928;DHT22;59882;45.624;11.698;2023-12-20T07:22:40;3.30;79.30
66928;DHT22;59882;45.624;11.698;2023-12-20T07:25:07;3.30;79.30
66928;DHT22;59882;45.624;11.698;2023-12-20T07:27:32;3.30;79.20
66928;DHT22;59882;45.624;11.698;2023-12-20T07:29:58;3.30;79.10
66928;DHT22;59882;45.624;11.698;2023-12-20T07:32:24;3.30;79.10
66928;DHT22;59882;45.624;11.698;2023-12-20T07:34:50;3.40;79.00
66928;DHT22;59882;45.624;11.698;2023-12-20T07:37:15;3.40;78.90
66928;DHT22;59882;45.624;11.698;2023-12-20T07:39:41;3.40;78.80
66928;DHT22;59882;45.624;11.698;2023-12-20T07:42:08;3.40;78.70
66928;DHT22;59882;45.624;11.698;2023-12-20T07:44:34;3.40;78.70
66928;DHT22;59882;45.624;11.698;2023-12-20T07:47:03;3.40;78.80
66928;DHT22;59882;45.624;11.698;2023-12-20T07:49:30;3.40;78.70
66928;DHT22;59882;45.624;11.698;2023-12-20T07:51:55;3.50;78.60
66928;DHT22;59882;45.624;11.698;2023-12-20T07:54:21;3.50;78.80
66928;DHT22;59882;45.624;11.698;2023-12-20T07:56:47;3.60;78.70
66928;DHT22;59882;45.624;11.698;2023-12-20T07:59:12;3.60;78.70
66928;DHT22;59882;45.624;11.698;2023-12-20T08:01:38;3.60;78.50
66928;DHT22;59882;45.624;11.698;2023-12-20T08:04:04;3.70;78.60
66928;DHT22;59882;45.624;11.698;2023-12-20T08:06:29;3.70;78.40
66928;DHT22;59882;45.624;11.698;2023-12-20T08:08:55;3.80;78.20
66928;DHT22;59882;45.624;11.698;2023-12-20T08:11:20;3.80;78.20
66928;DHT22;59882;45.624;11.698;2023-12-20T08:13:46;3.80;78.10
66928;DHT22;59882;45.624;11.698;2023-12-20T08:16:12;3.90;77.90
66928;DHT22;59882;45.624;11.698;2023-12-20T08:18:39;3.90;77.50
66928;DHT22;59882;45.624;11.698;2023-12-20T08:21:04;3.90;77.60
66928;DHT22;59882;45.624;11.698;2023-12-20T08:23:33;3.90;77.90
66928;DHT22;59882;45.624;11.698;2023-12-20T08:25:58;4.00;77.90
66928;DHT22;59882;45.624;11.698;2023-12-20T08:28:24;4.10;78.40
66928;DHT22;59882;45.624;11.698;2023-12-20T08:30:49;4.10;78.60
66928;DHT22;59882;45.624;11.698;2023-12-20T08:33:19;4.20;78.30
66928;DHT22;59882;45.624;11.698;2023-12-20T08:35:44;4.20;78.10
66928;DHT22;59882;45.624;11.698;2023-12-20T08:38:10;4.30;78.10
66928;DHT22;59882;45.624;11.698;2023-12-20T08:40:35;4.30;78.00
66928;DHT22;59882;45.624;11.698;2023-12-20T08:43:01;4.40;77.90
66928;DHT22;59882;45.624;11.698;2023-12-20T08:45:27;4.40;78.00
66928;DHT22;59882;45.624;11.698;2023-12-20T08:47:52;4.50;77.90
66928;DHT22;59882;45.624;11.698;2023-12-20T08:50:18;4.60;78.00
66928;DHT22;59882;45.624;11.698;2023-12-20T08:52:43;4.60;78.00
66928;DHT22;59882;45.624;11.698;2023-12-20T08:55:09;4.70;78.00
66928;DHT22;59882;45.624;11.698;2023-12-20T08:57:38;4.80;77.90
66928;DHT22;59882;45.624;11.698;2023-12-20T09:00:04;4.80;77.80
66928;DHT22;59882;45.624;11.698;2023-12-20T09:02:32;4.90;77.70
66928;DHT22;59882;45.624;11.698;2023-12-20T09:04:58;5.00;77.60
66928;DHT22;59882;45.624;11.698;2023-12-20T09:07:25;5.10;77.60
66928;DHT22;59882;45.624;11.698;2023-12-20T09:09:51;5.10;77.50
66928;DHT22;59882;45.624;11.698;2023-12-20T09:12:20;5.10;77.40
66928;DHT22;59882;45.624;11.698;2023-12-20T09:14:50;5.30;77.30
66928;DHT22;59882;45.624;11.698;2023-12-20T09:17:16;5.30;77.20
66928;DHT22;59882;45.624;11.698;2023-12-20T09:19:43;5.30;76.90
66928;DHT22;59882;45.624;11.698;2023-12-20T09:22:12;5.40;76.70
66928;DHT22;59882;45.624;11.698;2023-12-20T09:24:38;5.40;76.60
66928;DHT22;59882;45.624;11.698;2023-12-20T09:27:06;5.40;76.60
66928;DHT22;59882;45.624;11.698;2023-12-20T09:29:33;5.50;76.50
66928;DHT22;59882;45.624;11.698;2023-12-20T09:31:58;5.60;76.20
66928;DHT22;59882;45.624;11.698;2023-12-20T09:34:24;5.60;76.20
66928;DHT22;59882;45.624;11.698;2023-12-20T09:36:51;5.70;76.20
66928;DHT22;59882;45.624;11.698;2023-12-20T09:39:18;5.70;76.40
66928;DHT22;59882;45.624;11.698;2023-12-20T09:42:04;5.80;76.40
66928;DHT22;59882;45.624;11.698;2023-12-20T09:44:31;5.80;76.10
66928;DHT22;59882;45.624;11.698;2023-12-20T09:46:58;5.90;75.50
66928;DHT22;59882;45.624;11.698;2023-12-20T09:49:27;5.90;75.10
66928;DHT22;59882;45.624;11.698;2023-12-20T09:51:54;5.90;74.40
66928;DHT22;59882;45.624;11.698;2023-12-20T09:54:20;6.00;74.60
66928;DHT22;59882;45.624;11.698;2023-12-20T09:56:47;6.00;74.90
66928;DHT22;59882;45.624;11.698;2023-12-20T09:59:13;6.00;75.10
66928;DHT22;59882;45.624;11.698;2023-12-20T10:01:40;6.00;73.90
66928;DHT22;59882;45.624;11.698;2023-12-20T10:04:07;6.00;74.10
66928;DHT22;59882;45.624;11.698;2023-12-20T10:06:37;6.00;74.60
66928;DHT22;59882;45.624;11.698;2023-12-20T10:09:03;6.00;74.70
66928;DHT22;59882;45.624;11.698;2023-12-20T10:11:29;6.10;75.20
66928;DHT22;59882;45.624;11.698;2023-12-20T10:14:01;6.10;75.20
66928;DHT22;59882;45.624;11.698;2023-12-20T10:16:27;6.10;75.30
66928;DHT22;59882;45.624;11.698;2023-12-20T10:18:54;6.20;75.20
66928;DHT22;59882;45.624;11.698;2023-12-20T10:21:20;6.20;75.20
66928;DHT22;59882;45.624;11.698;2023-12-20T10:23:46;6.20;75.20
66928;DHT22;59882;45.624;11.698;2023-12-20T10:26:41;6.30;75.10
66928;DHT22;59882;45.624;11.698;2023-12-20T10:29:07;6.20;75.10
66928;DHT22;59882;45.624;11.698;2023-12-20T10:31:34;6.30;75.00
66928;DHT22;59882;45.624;11.698;2023-12-20T10:34:01;6.30;74.90
66928;DHT22;59882;45.624;11.698;2023-12-20T10:36:29;6.30;74.50
66928;DHT22;59882;45.624;11.698;2023-12-20T10:38:55;6.40;74.30
66928;DHT22;59882;45.624;11.698;2023-12-20T10:41:33;6.40;74.50
66928;DHT22;59882;45.624;11.698;2023-12-20T10:44:00;6.50;74.60
66928;DHT22;59882;45.624;11.698;2023-12-20T10:46:27;6.60;74.20
66928;DHT22;59882;45.624;11.698;2023-12-20T10:48:58;6.60;74.50
66928;DHT22;59882;45.624;11.698;2023-12-20T10:51:24;6.60;74.40
66928;DHT22;59882;45.624;11.698;2023-12-20T10:53:52;6.60;74.20
66928;DHT22;59882;45.624;11.698;2023-12-20T10:56:19;6.70;74.00
66928;DHT22;59882;45.624;11.698;2023-12-20T10:58:46;6.70;73.90
66928;DHT22;59882;45.624;11.698;2023-12-20T11:01:13;6.80;73.80
66928;DHT22;59882;45.624;11.698;2023-12-20T11:03:44;6.80;72.50
66928;DHT22;59882;45.624;11.698;2023-12-20T11:09:01;6.80;73.20
66928;DHT22;59882;45.624;11.698;2023-12-20T11:14:15;6.80;73.30
66928;DHT22;59882;45.624;11.698;2023-12-20T11:16:42;6.80;73.30
66928;DHT22;59882;45.624;11.698;2023-12-20T11:19:08;6.80;73.40
66928;DHT22;59882;45.624;11.698;2023-12-20T11:21:33;6.80;73.60
66928;DHT22;59882;45.624;11.698;2023-12-20T11:23:59;6.80;73.60
66928;DHT22;59882;45.624;11.698;2023-12-20T11:26:29;6.80;73.70
66928;DHT22;59882;45.624;11.698;2023-12-20T11:29:36;6.80;73.70
66928;DHT22;59882;45.624;11.698;2023-12-20T11:34:51;6.80;73.70
66928;DHT22;59882;45.624;11.698;2023-12-20T11:37:19;6.80;73.80
66928;DHT22;59882;45.624;11.698;2023-12-20T11:39:45;6.80;74.00
66928;DHT22;59882;45.624;11.698;2023-12-20T11:42:11;6.80;74.00
66928;DHT22;59882;45.624;11.698;2023-12-20T11:44:37;6.80;74.30
66928;DHT22;59882;45.624;11.698;2023-12-20T11:47:03;6.80;74.50
66928;DHT22;59882;45.624;11.698;2023-12-20T11:49:29;6.80;74.40
66928;DHT22;59882;45.624;11.698;2023-12-20T11:51:56;6.80;74.40
66928;DHT22;59882;45.624;11.698;2023-12-20T11:54:22;6.80;74.50
66928;DHT22;59882;45.624;11.698;2023-12-20T11:56:48;6.80;74.80
66928;DHT22;59882;45.624;11.698;2023-12-20T11:59:14;6.80;74.60
66928;DHT22;59882;45.624;11.698;2023-12-20T12:01:47;6.80;74.80
66928;DHT22;59882;45.624;11.698;2023-12-20T12:04:12;6.90;74.90
66928;DHT22;59882;45.624;11.698;2023-12-20T12:06:39;6.80;75.00
66928;DHT22;59882;45.624;11.698;2023-12-20T12:09:05;6.90;75.00
66928;DHT22;59882;45.624;11.698;2023-12-20T12:11:30;6.80;75.10
66928;DHT22;59882;45.624;11.698;2023-12-20T12:13:56;6.80;75.20
66928;DHT22;59882;45.624;11.698;2023-12-20T12:16:22;6.80;75.20
66928;DHT22;59882;45.624;11.698;2023-12-20T12:18:58;6.90;75.20
66928;DHT22;59882;45.624;11.698;2023-12-20T12:21:24;6.90;75.20
66928;DHT22;59882;45.624;11.698;2023-12-20T12:23:50;6.90;75.40
66928;DHT22;59882;45.624;11.698;2023-12-20T12:26:16;6.90;75.30
66928;DHT22;59882;45.624;11.698;2023-12-20T12:28:42;6.90;75.50
66928;DHT22;59882;45.624;11.698;2023-12-20T12:31:09;7.00;75.90
66928;DHT22;59882;45.624;11.698;2023-12-20T12:33:39;7.00;75.90
66928;DHT22;59882;45.624;11.698;2023-12-20T12:36:07;7.00;75.70
66928;DHT22;59882;45.624;11.698;2023-12-20T12:38:33;7.10;75.80
66928;DHT22;59882;45.624;11.698;2023-12-20T12:41:00;7.10;75.70
66928;DHT22;59882;45.624;11.698;2023-12-20T12:43:25;7.10;75.70
66928;DHT22;59882;45.624;11.698;2023-12-20T12:45:51;7.10;75.70
66928;DHT22;59882;45.624;11.698;2023-12-20T12:48:17;7.10;75.60
66928;DHT22;59882;45.624;11.698;2023-12-20T12:50:43;7.10;75.50
66928;DHT22;59882;45.624;11.698;2023-12-20T12:53:09;7.10;75.50
66928;DHT22;59882;45.624;11.698;2023-12-20T12:55:35;7.10;75.50
66928;DHT22;59882;45.624;11.698;2023-12-20T12:58:01;7.10;75.50
66928;DHT22;59882;45.624;11.698;2023-12-20T13:00:27;7.20;75.50
66928;DHT22;59882;45.624;11.698;2023-12-20T13:02:53;7.20;75.50
66928;DHT22;59882;45.624;11.698;2023-12-20T13:05:18;7.30;75.40
66928;DHT22;59882;45.624;11.698;2023-12-20T13:07:44;7.30;75.40
66928;DHT22;59882;45.624;11.698;2023-12-20T13:10:11;7.40;75.30
66928;DHT22;59882;45.624;11.698;2023-12-20T13:12:37;7.50;75.20
66928;DHT22;59882;45.624;11.698;2023-12-20T13:15:03;7.60;75.50
66928;DHT22;59882;45.624;11.698;2023-12-20T13:17:31;7.70;75.70
66928;DHT22;59882;45.624;11.698;2023-12-20T13:19:57;7.80;75.30
66928;DHT22;59882;45.624;11.698;2023-12-20T13:22:22;7.90;75.00
66928;DHT22;59882;45.624;11.698;2023-12-20T13:24:48;7.90;75.00
66928;DHT22;59882;45.624;11.698;2023-12-20T13:27:14;8.00;74.80
66928;DHT22;59882;45.624;11.698;2023-12-20T13:29:39;8.10;74.80
66928;DHT22;59882;45.624;11.698;2023-12-20T13:32:05;8.20;74.60
66928;DHT22;59882;45.624;11.698;2023-12-20T13:34:31;8.30;74.70
66928;DHT22;59882;45.624;11.698;2023-12-20T13:36:57;8.50;74.60
66928;DHT22;59882;45.624;11.698;2023-12-20T13:39:22;8.80;74.10
66928;DHT22;59882;45.624;11.698;2023-12-20T13:41:48;9.30;73.70
66928;DHT22;59882;45.624;11.698;2023-12-20T13:44:14;10.10;71.00
66928;DHT22;59882;45.624;11.698;2023-12-20T13:46:42;10.90;69.30
66928;DHT22;59882;45.624;11.698;2023-12-20T13:49:08;11.80;67.60
66928;DHT22;59882;45.624;11.698;2023-12-20T13:51:34;12.50;64.60
66928;DHT22;59882;45.624;11.698;2023-12-20T13:54:00;13.20;61.50
66928;DHT22;59882;45.624;11.698;2023-12-20T13:56:26;13.70;58.80
66928;DHT22;59882;45.624;11.698;2023-12-20T13:58:51;14.00;60.10
66928;DHT22;59882;45.624;11.698;2023-12-20T14:01:17;14.10;59.60
66928;DHT22;59882;45.624;11.698;2023-12-20T14:03:43;14.00;57.80
66928;DHT22;59882;45.624;11.698;2023-12-20T14:06:08;13.60;59.10
66928;DHT22;59882;45.624;11.698;2023-12-20T14:08:34;13.20;59.20
66928;DHT22;59882;45.624;11.698;2023-12-20T14:11:01;12.70;59.20
66928;DHT22;59882;45.624;11.698;2023-12-20T14:13:27;12.20;60.40
66928;DHT22;59882;45.624;11.698;2023-12-20T14:15:52;11.90;61.30
66928;DHT22;59882;45.624;11.698;2023-12-20T14:18:20;11.50;61.90
66928;DHT22;59882;45.624;11.698;2023-12-20T14:20:45;11.30;62.90
66928;DHT22;59882;45.624;11.698;2023-12-20T14:23:12;11.10;63.10
66928;DHT22;59882;45.624;11.698;2023-12-20T14:25:41;11.00;63.60
66928;DHT22;59882;45.624;11.698;2023-12-20T14:28:07;10.90;63.80
66928;DHT22;59882;45.624;11.698;2023-12-20T14:30:32;10.70;64.10
66928;DHT22;59882;45.624;11.698;2023-12-20T14:32:58;10.40;64.90
66928;DHT22;59882;45.624;11.698;2023-12-20T14:35:24;10.30;65.40
66928;DHT22;59882;45.624;11.698;2023-12-20T14:37:49;10.00;65.70
66928;DHT22;59882;45.624;11.698;2023-12-20T14:40:15;9.90;66.30
66928;DHT22;59882;45.624;11.698;2023-12-20T14:42:42;9.70;66.70
66928;DHT22;59882;45.624;11.698;2023-12-20T14:45:09;9.50;67.10
66928;DHT22;59882;45.624;11.698;2023-12-20T14:47:34;9.30;67.60
66928;DHT22;59882;45.624;11.698;2023-12-20T14:50:02;9.20;68.20
66928;DHT22;59882;45.624;11.698;2023-12-20T14:52:29;9.00;68.60
66928;DHT22;59882;45.624;11.698;2023-12-20T14:54:54;8.90;69.00
66928;DHT22;59882;45.624;11.698;2023-12-20T14:57:20;8.80;69.50
66928;DHT22;59882;45.624;11.698;2023-12-20T14:59:46;8.80;69.70
66928;DHT22;59882;45.624;11.698;2023-12-20T15:02:12;8.70;69.90
66928;DHT22;59882;45.624;11.698;2023-12-20T15:04:37;8.50;70.20
66928;DHT22;59882;45.624;11.698;2023-12-20T15:07:03;8.40;71.60
66928;DHT22;59882;45.624;11.698;2023-12-20T15:09:31;8.30;72.10
66928;DHT22;59882;45.624;11.698;2023-12-20T15:11:57;8.20;72.40
66928;DHT22;59882;45.624;11.698;2023-12-20T15:14:23;8.20;72.80
66928;DHT22;59882;45.624;11.698;2023-12-20T15:16:48;8.10;72.60
66928;DHT22;59882;45.624;11.698;2023-12-20T15:19:14;8.00;73.10
66928;DHT22;59882;45.624;11.698;2023-12-20T15:21:40;7.90;73.30
66928;DHT22;59882;45.624;11.698;2023-12-20T15:24:11;7.90;73.70
66928;DHT22;59882;45.624;11.698;2023-12-20T15:26:45;7.80;74.50
66928;DHT22;59882;45.624;11.698;2023-12-20T15:29:13;7.70;74.80
66928;DHT22;59882;45.624;11.698;2023-12-20T15:31:44;7.60;75.40
66928;DHT22;59882;45.624;11.698;2023-12-20T15:34:10;7.50;75.60